Finger, Tennessee
Current Conditions -  °F | °C
As of 1:53 AM on Tuesday 21 Oct 2014 (Local Time) from KMKL Reporting Station
Few Clouds Few Clouds  
Wind Chill: 55°   Ceiling: Unl
Heat Index: 55°   Visibility: 10mi
Dew Point: 51°   Wind: 3mph
Humidity: 86%   Direction: 230°SW
Pressure: 30.02"   Gusts: NA
Location:  35.36°N, 88.6°W
Report Text: KMKL 210653Z AUTO 23003KT 10SM FEW043 13/11 A3002 RMK AO2 SLP163 T01280106
Loading
Personal Weather Stations






























Interactive Weather Map
Tropical Storm Tracking
New forecast layout! Learn more

10-Day Weather Forecast

Advertisements
Track Severe Weather on mobile